Time;durP1;ratioP1;P1;durP2;ratioP2;P2;SDS_P1;SDS_P2;PMS_P1;PMS_P2;Temp;Humidity;BMP_temperature;BMP_pressure;BME280_temperature;BME280_humidity;BME280_pressure;Samples;Min_cycle;Max_cycle;Signal;HPM_P1;HPM_P2
2023/01/06 00:02:10;;;;;;;35.40;5.45;;;;;;;;;;5025475;28;20056;-71
2023/01/06 00:04:35;;;;;;;25.98;4.35;;;;;;;;;;5022551;28;20036;-71
2023/01/06 00:07:00;;;;;;;29.13;4.60;;;;;;;;;;5023607;28;20025;-73
2023/01/06 00:09:26;;;;;;;30.40;4.82;;;;;;;;;;5023467;28;20246;-72
2023/01/06 00:11:51;;;;;;;32.85;5.05;;;;;;;;;;5022369;28;20555;-72
2023/01/06 00:14:17;;;;;;;31.85;4.53;;;;;;;;;;5025297;28;20041;-72
2023/01/06 00:16:42;;;;;;;32.53;4.65;;;;;;;;;;5006659;28;20029;-72
2023/01/06 00:19:09;;;;;;;34.80;4.25;;;;;;;;;;5025361;28;20033;-73
2023/01/06 00:21:35;;;;;;;24.02;4.43;;;;;;;;;;5024924;28;20308;-72
2023/01/06 00:24:00;;;;;;;30.70;3.92;;;;;;;;;;5025169;28;20025;-72
2023/01/06 00:26:26;;;;;;;31.80;4.55;;;;;;;;;;5024376;28;20037;-72
2023/01/06 00:28:54;;;;;;;25.45;5.05;;;;;;;;;;5024841;28;20092;-73
2023/01/06 00:31:19;;;;;;;26.17;4.63;;;;;;;;;;5024234;28;20215;-72
2023/01/06 00:33:45;;;;;;;22.23;4.63;;;;;;;;;;5024621;28;20037;-72
2023/01/06 00:36:11;;;;;;;28.40;5.00;;;;;;;;;;5022372;28;20055;-72
2023/01/06 00:38:37;;;;;;;32.88;4.57;;;;;;;;;;5005920;28;20124;-72
2023/01/06 00:41:04;;;;;;;27.00;3.80;;;;;;;;;;5024130;28;20055;-72
2023/01/06 00:43:30;;;;;;;25.40;3.85;;;;;;;;;;5030370;28;20608;-72
2023/01/06 00:45:55;;;;;;;22.92;3.70;;;;;;;;;;5030314;28;20033;-70
2023/01/06 00:48:20;;;;;;;27.98;4.30;;;;;;;;;;5029820;28;20024;-71
2023/01/06 00:50:46;;;;;;;20.52;4.25;;;;;;;;;;5028658;28;20379;-72
2023/01/06 00:53:11;;;;;;;21.90;3.92;;;;;;;;;;5024831;28;20371;-72
2023/01/06 00:55:36;;;;;;;28.50;4.63;;;;;;;;;;5024859;28;20048;-71
2023/01/06 00:58:02;;;;;;;30.20;4.28;;;;;;;;;;5024792;28;20033;-71
2023/01/06 01:00:27;;;;;;;21.55;4.30;;;;;;;;;;5024584;28;20434;-71
2023/01/06 01:02:54;;;;;;;21.52;3.70;;;;;;;;;;5022005;28;20025;-71
2023/01/06 01:05:20;;;;;;;25.67;4.10;;;;;;;;;;5022643;28;20898;-71
2023/01/06 01:07:46;;;;;;;24.08;4.13;;;;;;;;;;5021475;28;20029;-71
2023/01/06 01:10:11;;;;;;;18.17;3.33;;;;;;;;;;5024094;28;20029;-72
2023/01/06 01:12:36;;;;;;;21.38;3.85;;;;;;;;;;5023691;28;20275;-71
2023/01/06 01:15:02;;;;;;;31.65;4.30;;;;;;;;;;5023910;28;20044;-70
2023/01/06 01:17:29;;;;;;;21.75;3.63;;;;;;;;;;5021264;28;20029;-71
2023/01/06 01:19:56;;;;;;;17.20;3.30;;;;;;;;;;5024137;28;20056;-70
2023/01/06 01:22:25;;;;;;;25.55;3.90;;;;;;;;;;5003275;28;20037;-70
2023/01/06 01:24:50;;;;;;;20.67;3.83;;;;;;;;;;5001353;28;20437;-70
2023/01/06 01:27:16;;;;;;;14.52;3.25;;;;;;;;;;5003846;28;20030;-71
2023/01/06 01:29:41;;;;;;;16.77;3.00;;;;;;;;;;5002106;28;20033;-72
2023/01/06 01:32:07;;;;;;;14.20;3.17;;;;;;;;;;5001987;28;20407;-72
2023/01/06 01:34:34;;;;;;;16.85;3.05;;;;;;;;;;5003723;28;20072;-72
2023/01/06 01:36:59;;;;;;;20.23;3.88;;;;;;;;;;5003892;28;20330;-72
2023/01/06 01:39:26;;;;;;;16.73;3.05;;;;;;;;;;5003202;28;20618;-72
2023/01/06 01:41:52;;;;;;;19.35;3.45;;;;;;;;;;5004145;28;20471;-72
2023/01/06 01:44:35;;;;;;;15.15;3.47;;;;;;;;;;5017507;28;20033;-72
2023/01/06 01:47:01;;;;;;;19.35;3.92;;;;;;;;;;5016977;28;20037;-72
2023/01/06 01:49:28;;;;;;;18.05;3.42;;;;;;;;;;5008361;28;20036;-73
2023/01/06 01:51:55;;;;;;;18.00;6.65;;;;;;;;;;5023129;28;20037;-73
2023/01/06 01:54:23;;;;;;;18.00;3.55;;;;;;;;;;5013250;28;20033;-72
2023/01/06 01:56:52;;;;;;;19.67;3.63;;;;;;;;;;5003648;28;20573;-73
2023/01/06 01:59:20;;;;;;;15.38;3.53;;;;;;;;;;5003661;28;20037;-72
2023/01/06 02:01:48;;;;;;;20.55;3.70;;;;;;;;;;5003705;28;20029;-72
2023/01/06 02:04:14;;;;;;;14.90;3.10;;;;;;;;;;5001521;28;20348;-71
2023/01/06 02:06:40;;;;;;;16.75;4.03;;;;;;;;;;5003616;28;20111;-72
2023/01/06 02:09:21;;;;;;;15.23;3.60;;;;;;;;;;5003149;28;20534;-72
2023/01/06 02:11:49;;;;;;;14.88;3.60;;;;;;;;;;4983555;28;20694;-71
2023/01/06 02:14:23;;;;;;;14.43;3.35;;;;;;;;;;4983131;28;20542;-72
2023/01/06 02:16:51;;;;;;;15.45;3.58;;;;;;;;;;5000029;28;20431;-72
2023/01/06 02:19:35;;;;;;;12.57;3.30;;;;;;;;;;5002910;28;20364;-71
2023/01/06 02:22:06;;;;;;;12.25;3.20;;;;;;;;;;5002541;28;20326;-72
2023/01/06 02:24:35;;;;;;;16.50;3.35;;;;;;;;;;5002566;28;20034;-72
2023/01/06 02:27:02;;;;;;;23.13;10.25;;;;;;;;;;5002817;28;20824;-72
2023/01/06 02:29:28;;;;;;;18.60;3.45;;;;;;;;;;5003557;28;20029;-72
2023/01/06 02:32:08;;;;;;;18.38;3.97;;;;;;;;;;5002493;28;20477;-72
2023/01/06 02:34:40;;;;;;;16.95;5.30;;;;;;;;;;5002828;28;20060;-72
2023/01/06 02:37:20;;;;;;;18.55;4.10;;;;;;;;;;5002740;28;20282;-72
2023/01/06 02:39:46;;;;;;;17.13;3.90;;;;;;;;;;5002623;28;20038;-73
2023/01/06 02:42:30;;;;;;;17.73;3.60;;;;;;;;;;5001065;28;20040;-72
2023/01/06 02:45:04;;;;;;;19.52;4.28;;;;;;;;;;5003531;28;20040;-72
2023/01/06 02:47:43;;;;;;;29.83;5.47;;;;;;;;;;5033813;28;20321;-74
2023/01/06 02:50:27;;;;;;;19.08;4.07;;;;;;;;;;5026649;28;20335;-73
2023/01/06 02:52:56;;;;;;;30.75;5.22;;;;;;;;;;5018506;28;20083;-73
2023/01/06 02:55:28;;;;;;;18.67;5.38;;;;;;;;;;5022032;28;20257;-72
2023/01/06 02:57:56;;;;;;;18.38;5.05;;;;;;;;;;5021990;28;20083;-73
2023/01/06 03:00:33;;;;;;;24.48;4.57;;;;;;;;;;5022598;28;20493;-73
2023/01/06 03:03:10;;;;;;;13.98;4.18;;;;;;;;;;5019899;28;20164;-73
2023/01/06 03:05:36;;;;;;;14.07;4.20;;;;;;;;;;5019624;28;20034;-72
2023/01/06 03:08:05;;;;;;;10.38;3.45;;;;;;;;;;5022717;28;20557;-72
2023/01/06 03:10:31;;;;;;;14.07;3.90;;;;;;;;;;5020257;28;20033;-72
2023/01/06 03:13:03;;;;;;;10.40;4.00;;;;;;;;;;5022066;28;20112;-73
2023/01/06 03:15:28;;;;;;;22.87;8.03;;;;;;;;;;5020696;28;20040;-71
2023/01/06 03:17:54;;;;;;;14.18;3.60;;;;;;;;;;5022174;28;20256;-70
2023/01/06 03:20:20;;;;;;;14.70;3.83;;;;;;;;;;5021766;28;20470;-72
2023/01/06 03:22:46;;;;;;;12.85;4.40;;;;;;;;;;5020050;28;20033;-72
2023/01/06 03:25:12;;;;;;;15.77;3.50;;;;;;;;;;5021306;28;20061;-72
2023/01/06 03:27:37;;;;;;;19.75;4.00;;;;;;;;;;5021868;28;20162;-72
2023/01/06 03:30:08;;;;;;;12.57;2.70;;;;;;;;;;5020877;28;20272;-72
2023/01/06 03:32:33;;;;;;;13.32;2.90;;;;;;;;;;5021138;28;20036;-72
2023/01/06 03:35:01;;;;;;;12.30;2.72;;;;;;;;;;5021418;28;20029;-71
2023/01/06 03:37:33;;;;;;;11.57;2.78;;;;;;;;;;5021083;28;20036;-71
2023/01/06 03:40:24;;;;;;;13.70;2.90;;;;;;;;;;5018686;28;20436;-71
2023/01/06 03:45:44;;;;;;;7.30;2.42;;;;;;;;;;5019631;28;20030;-72
2023/01/06 03:48:17;;;;;;;8.60;3.10;;;;;;;;;;5013680;28;20109;-72
2023/01/06 03:51:01;;;;;;;10.48;2.20;;;;;;;;;;5021155;28;20037;-71
2023/01/06 03:53:29;;;;;;;12.05;3.17;;;;;;;;;;5001525;28;20053;-72
2023/01/06 03:56:02;;;;;;;13.15;2.58;;;;;;;;;;4999437;28;20029;-72
2023/01/06 03:58:28;;;;;;;11.75;3.47;;;;;;;;;;5007886;28;20033;-71
2023/01/06 04:00:54;;;;;;;14.95;2.90;;;;;;;;;;5021484;28;20037;-72
2023/01/06 04:03:24;;;;;;;13.35;3.25;;;;;;;;;;5021300;28;20528;-71
2023/01/06 04:05:49;;;;;;;16.67;3.00;;;;;;;;;;5021017;28;20060;-72
2023/01/06 04:08:15;;;;;;;11.15;2.80;;;;;;;;;;5021355;28;20125;-72
2023/01/06 04:10:42;;;;;;;12.18;3.05;;;;;;;;;;5020735;28;20569;-70
2023/01/06 04:13:07;;;;;;;9.18;2.70;;;;;;;;;;5019588;28;20041;-71
2023/01/06 04:15:35;;;;;;;12.48;3.42;;;;;;;;;;5022477;28;20573;-71
2023/01/06 04:18:00;;;;;;;14.00;3.70;;;;;;;;;;5022307;28;20044;-71
2023/01/06 04:20:27;;;;;;;14.32;2.75;;;;;;;;;;5024414;28;20071;-71
2023/01/06 04:22:53;;;;;;;11.70;3.20;;;;;;;;;;5024700;28;20029;-72
2023/01/06 04:25:21;;;;;;;11.45;3.17;;;;;;;;;;5024774;28;20064;-71
2023/01/06 04:27:46;;;;;;;16.42;3.30;;;;;;;;;;5024667;28;20029;-71
2023/01/06 04:30:14;;;;;;;13.25;3.03;;;;;;;;;;5022485;28;20162;-71
2023/01/06 04:32:40;;;;;;;10.77;2.88;;;;;;;;;;5024086;28;20044;-69
2023/01/06 04:35:05;;;;;;;10.65;2.90;;;;;;;;;;5024627;28;20024;-71
2023/01/06 04:37:30;;;;;;;12.25;2.83;;;;;;;;;;5024338;28;20094;-72
2023/01/06 04:39:56;;;;;;;12.55;2.97;;;;;;;;;;5024132;28;20074;-70
2023/01/06 04:42:24;;;;;;;11.98;2.97;;;;;;;;;;5022116;28;20086;-71
2023/01/06 04:44:49;;;;;;;18.27;3.25;;;;;;;;;;5024398;28;20036;-72
2023/01/06 04:47:14;;;;;;;16.35;2.88;;;;;;;;;;5023805;28;20033;-71
2023/01/06 04:49:40;;;;;;;13.40;3.20;;;;;;;;;;5022203;28;20347;-72
2023/01/06 04:52:07;;;;;;;15.77;3.20;;;;;;;;;;5024747;28;20502;-71
2023/01/06 04:54:35;;;;;;;18.00;3.22;;;;;;;;;;5023721;28;20428;-71
2023/01/06 04:57:00;;;;;;;13.13;3.10;;;;;;;;;;5022162;28;20040;-71
2023/01/06 04:59:28;;;;;;;13.25;3.10;;;;;;;;;;5024393;28;20025;-71
2023/01/06 05:01:54;;;;;;;20.98;3.72;;;;;;;;;;5021694;28;20495;-72
2023/01/06 05:04:21;;;;;;;18.05;3.88;;;;;;;;;;5025460;28;20043;-72
2023/01/06 05:06:47;;;;;;;17.67;3.38;;;;;;;;;;5024267;28;20036;-73
2023/01/06 05:09:12;;;;;;;16.17;3.53;;;;;;;;;;5024048;28;20114;-73
2023/01/06 05:11:37;;;;;;;15.43;3.60;;;;;;;;;;5020548;28;20064;-73
2023/01/06 05:14:03;;;;;;;18.55;3.88;;;;;;;;;;5023731;28;20044;-72
2023/01/06 05:16:30;;;;;;;25.80;4.80;;;;;;;;;;5024127;28;20033;-72
2023/01/06 05:18:58;;;;;;;20.02;3.78;;;;;;;;;;5024412;28;20093;-73
2023/01/06 05:21:25;;;;;;;17.95;3.85;;;;;;;;;;5024318;28;20082;-71
2023/01/06 05:23:50;;;;;;;33.90;4.78;;;;;;;;;;5021470;28;20066;-72
2023/01/06 05:26:17;;;;;;;20.33;4.63;;;;;;;;;;5024100;28;20067;-72
2023/01/06 05:28:43;;;;;;;23.02;4.40;;;;;;;;;;5023136;28;20098;-72
2023/01/06 05:31:09;;;;;;;23.67;5.10;;;;;;;;;;5021604;28;20279;-72
2023/01/06 05:33:34;;;;;;;18.40;5.20;;;;;;;;;;5023184;28;20060;-71
2023/01/06 05:36:01;;;;;;;26.35;6.18;;;;;;;;;;5023972;28;20032;-72
2023/01/06 05:38:29;;;;;;;20.88;4.65;;;;;;;;;;5023219;28;20267;-70
2023/01/06 05:40:55;;;;;;;18.58;5.35;;;;;;;;;;5023212;28;20657;-72
2023/01/06 05:43:21;;;;;;;23.33;6.13;;;;;;;;;;5021003;28;20033;-72
2023/01/06 05:45:46;;;;;;;22.48;5.70;;;;;;;;;;5023052;28;20478;-72
2023/01/06 05:48:12;;;;;;;20.63;4.68;;;;;;;;;;5023227;28;20443;-71
2023/01/06 05:50:38;;;;;;;23.02;4.75;;;;;;;;;;5023472;28;20120;-70
2023/01/06 05:53:03;;;;;;;19.77;4.85;;;;;;;;;;5023015;28;20059;-70
2023/01/06 05:55:30;;;;;;;35.78;6.13;;;;;;;;;;5022926;28;20048;-69
2023/01/06 05:57:55;;;;;;;29.38;6.15;;;;;;;;;;5022442;28;20052;-70
2023/01/06 06:00:21;;;;;;;40.80;6.50;;;;;;;;;;5021131;28;20083;-69
2023/01/06 06:02:46;;;;;;;28.55;5.90;;;;;;;;;;5022131;28;20033;-70
2023/01/06 06:05:11;;;;;;;30.60;6.22;;;;;;;;;;5023404;28;20201;-70
2023/01/06 06:07:39;;;;;;;46.53;7.13;;;;;;;;;;5022544;28;20435;-70
2023/01/06 06:10:05;;;;;;;41.80;5.95;;;;;;;;;;5023025;28;20772;-71
2023/01/06 06:12:30;;;;;;;49.50;7.18;;;;;;;;;;5020296;28;20126;-70
2023/01/06 06:14:55;;;;;;;44.03;8.05;;;;;;;;;;5022537;28;20147;-71
2023/01/06 06:17:21;;;;;;;41.63;7.53;;;;;;;;;;5022185;28;20061;-71
2023/01/06 06:19:47;;;;;;;40.25;6.55;;;;;;;;;;5022773;28;20040;-70
2023/01/06 06:22:12;;;;;;;47.05;7.03;;;;;;;;;;5019859;28;20127;-70
2023/01/06 06:24:37;;;;;;;53.20;7.55;;;;;;;;;;5020757;28;20060;-70
2023/01/06 06:27:02;;;;;;;51.95;7.93;;;;;;;;;;5021979;28;20033;-69
2023/01/06 06:29:28;;;;;;;54.65;6.82;;;;;;;;;;5021735;28;20033;-70
2023/01/06 06:31:53;;;;;;;50.47;8.63;;;;;;;;;;5022577;28;20160;-70
2023/01/06 06:34:18;;;;;;;43.38;6.85;;;;;;;;;;5019919;28;20027;-70
2023/01/06 06:36:44;;;;;;;52.75;7.45;;;;;;;;;;5019830;28;20473;-70
2023/01/06 06:39:09;;;;;;;51.85;7.60;;;;;;;;;;5021788;28;20086;-70
2023/01/06 06:41:34;;;;;;;50.70;6.95;;;;;;;;;;5021018;28;20382;-71
2023/01/06 06:44:00;;;;;;;56.20;8.02;;;;;;;;;;5019802;28;20029;-70
2023/01/06 06:46:25;;;;;;;48.17;6.72;;;;;;;;;;5020105;28;20134;-70
2023/01/06 06:48:53;;;;;;;72.60;9.55;;;;;;;;;;5021798;28;20055;-70
2023/01/06 06:51:19;;;;;;;70.35;8.30;;;;;;;;;;5020175;28;20057;-70
2023/01/06 06:53:45;;;;;;;56.55;7.80;;;;;;;;;;5021694;28;20496;-71
2023/01/06 06:56:12;;;;;;;48.97;5.70;;;;;;;;;;5022588;28;20331;-71
2023/01/06 06:58:37;;;;;;;55.45;6.13;;;;;;;;;;5019222;28;20457;-72
2023/01/06 07:01:05;;;;;;;55.42;6.20;;;;;;;;;;5022268;28;20279;-70
2023/01/06 07:03:30;;;;;;;53.42;6.07;;;;;;;;;;5019829;28;20430;-70
2023/01/06 07:05:56;;;;;;;41.70;6.32;;;;;;;;;;5021840;28;20033;-70
2023/01/06 07:08:23;;;;;;;45.42;7.05;;;;;;;;;;5021737;28;20093;-71
2023/01/06 07:10:50;;;;;;;50.10;5.68;;;;;;;;;;5022017;28;20045;-70
2023/01/06 07:13:16;;;;;;;48.85;6.07;;;;;;;;;;5019597;28;20123;-70
2023/01/06 07:15:41;;;;;;;40.88;5.70;;;;;;;;;;5019606;28;20496;-70
2023/01/06 07:18:11;;;;;;;46.10;6.47;;;;;;;;;;5003606;28;20060;-70
2023/01/06 07:20:39;;;;;;;43.38;4.93;;;;;;;;;;5021406;28;20052;-70
2023/01/06 07:23:04;;;;;;;51.08;5.55;;;;;;;;;;5020086;28;20549;-71
2023/01/06 07:25:30;;;;;;;43.97;5.18;;;;;;;;;;5021445;28;20367;-71
2023/01/06 07:27:57;;;;;;;38.33;5.75;;;;;;;;;;5019814;28;20424;-70
2023/01/06 07:30:23;;;;;;;50.05;6.00;;;;;;;;;;5020875;28;20037;-70
2023/01/06 07:32:49;;;;;;;51.65;5.70;;;;;;;;;;5021810;28;20033;-70
2023/01/06 07:35:14;;;;;;;45.20;6.15;;;;;;;;;;5019340;28;20601;-70
2023/01/06 07:37:42;;;;;;;43.88;5.50;;;;;;;;;;5003827;28;20114;-70
2023/01/06 07:40:08;;;;;;;58.03;6.95;;;;;;;;;;5021462;28;20078;-70
2023/01/06 07:42:36;;;;;;;63.97;7.45;;;;;;;;;;5021589;28;20025;-70
2023/01/06 07:45:02;;;;;;;64.53;7.82;;;;;;;;;;5032957;28;20576;-71
2023/01/06 07:47:27;;;;;;;61.25;7.35;;;;;;;;;;5000541;28;20034;-71
2023/01/06 07:49:53;;;;;;;39.72;5.50;;;;;;;;;;5005522;28;20215;-70
2023/01/06 07:52:18;;;;;;;52.75;5.47;;;;;;;;;;5005664;28;20115;-71
2023/01/06 07:54:46;;;;;;;39.15;6.22;;;;;;;;;;5003787;28;20140;-72
2023/01/06 07:57:11;;;;;;;41.53;5.63;;;;;;;;;;5015022;28;20604;-72
2023/01/06 07:59:39;;;;;;;46.00;5.20;;;;;;;;;;5027399;28;20032;-71
2023/01/06 08:02:05;;;;;;;44.92;5.63;;;;;;;;;;5027263;28;20655;-70
2023/01/06 08:04:33;;;;;;;30.77;4.63;;;;;;;;;;5025269;28;20436;-71
2023/01/06 08:06:58;;;;;;;36.13;4.90;;;;;;;;;;5023082;28;20037;-71
2023/01/06 08:09:23;;;;;;;41.08;4.32;;;;;;;;;;5024352;28;20106;-71
2023/01/06 08:11:49;;;;;;;31.88;4.43;;;;;;;;;;5023021;28;20083;-71
2023/01/06 08:14:17;;;;;;;27.25;3.22;;;;;;;;;;5022961;28;20045;-71
2023/01/06 08:16:45;;;;;;;28.20;3.95;;;;;;;;;;5023070;28;20040;-71
2023/01/06 08:19:10;;;;;;;33.53;3.80;;;;;;;;;;5022737;28;20040;-72
2023/01/06 08:21:37;;;;;;;29.00;3.42;;;;;;;;;;5007407;28;20333;-71
2023/01/06 08:24:05;;;;;;;29.88;4.00;;;;;;;;;;5024949;28;20037;-71
2023/01/06 08:26:30;;;;;;;27.60;3.60;;;;;;;;;;5024625;28;20044;-72
2023/01/06 08:28:56;;;;;;;29.63;3.78;;;;;;;;;;5024678;28;20569;-71
2023/01/06 08:31:23;;;;;;;27.55;3.67;;;;;;;;;;5024285;28;20530;-73
2023/01/06 08:33:52;;;;;;;42.03;4.20;;;;;;;;;;5024563;28;20022;-72
2023/01/06 08:36:18;;;;;;;25.50;3.15;;;;;;;;;;5022536;28;20161;-72
2023/01/06 08:38:44;;;;;;;26.40;3.80;;;;;;;;;;5029140;28;20028;-72
2023/01/06 08:41:09;;;;;;;28.15;4.03;;;;;;;;;;5024799;28;20048;-71
2023/01/06 08:43:38;;;;;;;25.70;3.90;;;;;;;;;;5025335;28;20223;-72
2023/01/06 08:46:04;;;;;;;28.63;3.88;;;;;;;;;;4996053;28;20032;-72
2023/01/06 08:48:30;;;;;;;35.00;4.45;;;;;;;;;;5024820;28;20083;-72
2023/01/06 08:51:00;;;;;;;34.85;4.45;;;;;;;;;;5023261;28;20058;-72
2023/01/06 08:53:25;;;;;;;31.35;3.67;;;;;;;;;;5024494;28;20029;-72
2023/01/06 08:55:51;;;;;;;30.67;3.60;;;;;;;;;;5024727;28;20036;-72
2023/01/06 08:58:16;;;;;;;38.65;4.97;;;;;;;;;;5005648;28;20119;-72
2023/01/06 09:00:42;;;;;;;27.73;3.92;;;;;;;;;;5021475;28;20104;-72
2023/01/06 09:03:10;;;;;;;27.05;4.13;;;;;;;;;;5022038;28;20156;-71
2023/01/06 09:05:36;;;;;;;30.25;4.47;;;;;;;;;;5024488;28;20471;-71
2023/01/06 09:08:01;;;;;;;30.05;3.60;;;;;;;;;;5023994;28;20029;-71
2023/01/06 09:10:28;;;;;;;36.38;4.00;;;;;;;;;;5022268;28;20033;-72
2023/01/06 09:12:54;;;;;;;25.83;3.90;;;;;;;;;;5021542;28;20033;-72
2023/01/06 09:15:19;;;;;;;28.25;3.65;;;;;;;;;;5024056;28;20036;-71
2023/01/06 09:17:44;;;;;;;25.98;3.75;;;;;;;;;;5021892;28;20369;-72
2023/01/06 09:20:10;;;;;;;40.83;3.97;;;;;;;;;;5024340;28;20035;-71
2023/01/06 09:22:35;;;;;;;25.67;3.05;;;;;;;;;;5021186;28;20040;-73
2023/01/06 09:25:01;;;;;;;29.55;3.92;;;;;;;;;;5024000;28;20033;-73
2023/01/06 09:27:26;;;;;;;24.80;3.28;;;;;;;;;;5023881;28;20548;-72
2023/01/06 09:29:51;;;;;;;21.60;2.75;;;;;;;;;;5022022;28;20549;-72
2023/01/06 09:32:17;;;;;;;29.02;3.72;;;;;;;;;;5023708;28;20079;-72
2023/01/06 09:34:43;;;;;;;22.52;3.63;;;;;;;;;;5023387;28;20489;-72
2023/01/06 09:37:08;;;;;;;31.42;3.45;;;;;;;;;;5005487;28;20037;-73
2023/01/06 09:39:33;;;;;;;23.60;3.30;;;;;;;;;;5023863;28;20728;-72
2023/01/06 09:42:23;;;;;;;22.05;3.05;;;;;;;;;;5022178;28;20428;-72
2023/01/06 09:44:51;;;;;;;27.38;4.05;;;;;;;;;;5024425;28;20396;-72
2023/01/06 09:47:18;;;;;;;42.97;4.97;;;;;;;;;;5036989;28;20059;-71
2023/01/06 09:49:49;;;;;;;36.90;3.47;;;;;;;;;;5035093;28;20071;-71
2023/01/06 09:52:33;;;;;;;38.83;4.43;;;;;;;;;;5043484;28;20454;-71
2023/01/06 09:55:02;;;;;;;28.48;3.72;;;;;;;;;;5041596;28;20028;-73
2023/01/06 09:57:31;;;;;;;38.20;4.35;;;;;;;;;;5042895;28;20051;-72
2023/01/06 10:00:01;;;;;;;22.90;3.83;;;;;;;;;;5040547;28;20039;-73
2023/01/06 10:02:32;;;;;;;28.65;3.67;;;;;;;;;;5043159;28;20358;-73
2023/01/06 10:04:57;;;;;;;30.57;3.47;;;;;;;;;;5042825;28;20259;-72
2023/01/06 10:07:39;;;;;;;30.27;3.92;;;;;;;;;;5043328;28;20032;-72
2023/01/06 10:10:04;;;;;;;32.95;5.20;;;;;;;;;;5043006;28;20032;-72
2023/01/06 10:12:38;;;;;;;29.02;3.15;;;;;;;;;;5042465;28;20427;-72
2023/01/06 10:15:04;;;;;;;30.88;4.53;;;;;;;;;;5040765;28;20024;-72
2023/01/06 10:17:48;;;;;;;29.65;3.97;;;;;;;;;;5043246;28;20551;-73
2023/01/06 10:20:38;;;;;;;34.40;4.60;;;;;;;;;;5042412;28;20040;-73
2023/01/06 10:23:03;;;;;;;29.80;4.35;;;;;;;;;;5040495;28;20157;-72
2023/01/06 10:25:29;;;;;;;26.25;3.97;;;;;;;;;;5042905;28;20085;-73
2023/01/06 10:28:01;;;;;;;32.15;4.50;;;;;;;;;;5042059;28;20473;-73
2023/01/06 10:30:33;;;;;;;33.92;4.18;;;;;;;;;;5041491;28;20036;-72
2023/01/06 10:32:59;;;;;;;36.88;3.63;;;;;;;;;;5042479;28;20024;-72
2023/01/06 10:35:26;;;;;;;37.85;3.85;;;;;;;;;;5042354;28;20354;-72
2023/01/06 10:37:54;;;;;;;30.80;3.53;;;;;;;;;;5038460;28;20048;-71
2023/01/06 10:40:21;;;;;;;22.98;3.67;;;;;;;;;;5022783;28;20075;-73
2023/01/06 10:42:54;;;;;;;28.35;3.70;;;;;;;;;;5021082;28;20155;-73
2023/01/06 10:45:23;;;;;;;40.67;4.57;;;;;;;;;;5033408;28;20062;-73
2023/01/06 10:47:51;;;;;;;26.05;3.85;;;;;;;;;;5004179;28;25059;-72
2023/01/06 10:50:17;;;;;;;25.98;3.90;;;;;;;;;;5020061;28;20025;-72
2023/01/06 10:52:44;;;;;;;29.40;4.15;;;;;;;;;;5022757;28;20374;-73
2023/01/06 10:55:18;;;;;;;28.95;4.25;;;;;;;;;;5020228;28;20521;-73
2023/01/06 10:57:44;;;;;;;29.35;3.97;;;;;;;;;;5021926;28;20328;-71
2023/01/06 11:00:11;;;;;;;30.45;3.45;;;;;;;;;;5022491;28;20449;-73
2023/01/06 11:02:47;;;;;;;32.78;4.15;;;;;;;;;;5018322;28;20032;-73
2023/01/06 11:05:16;;;;;;;29.77;3.90;;;;;;;;;;5020196;28;20064;-71
2023/01/06 11:07:46;;;;;;;31.88;4.75;;;;;;;;;;5019447;28;20516;-72
2023/01/06 11:10:21;;;;;;;27.25;4.68;;;;;;;;;;5019666;28;20032;-73
2023/01/06 11:12:46;;;;;;;35.47;4.80;;;;;;;;;;5021066;28;20041;-73
2023/01/06 11:15:18;;;;;;;28.60;4.40;;;;;;;;;;5022181;28;20064;-73
2023/01/06 11:17:44;;;;;;;32.58;4.70;;;;;;;;;;5020559;28;20128;-72
2023/01/06 11:20:12;;;;;;;22.08;3.65;;;;;;;;;;5022505;28;20422;-72
2023/01/06 11:22:39;;;;;;;29.75;5.18;;;;;;;;;;5021275;28;20037;-72
2023/01/06 11:25:20;;;;;;;25.58;3.90;;;;;;;;;;5021856;28;20466;-71
2023/01/06 11:28:08;;;;;;;41.67;4.60;;;;;;;;;;5019450;28;20033;-71
2023/01/06 11:30:45;;;;;;;21.63;3.70;;;;;;;;;;5021468;28;20432;-71
2023/01/06 11:33:15;;;;;;;29.30;4.05;;;;;;;;;;5021765;28;20021;-71
2023/01/06 11:35:42;;;;;;;31.58;4.57;;;;;;;;;;5021526;28;20021;-71
2023/01/06 11:38:11;;;;;;;27.17;4.00;;;;;;;;;;4983436;28;20048;-71
2023/01/06 11:40:36;;;;;;;34.28;4.53;;;;;;;;;;5002006;28;20425;-71
2023/01/06 11:43:05;;;;;;;24.95;3.92;;;;;;;;;;5016865;28;20577;-71
2023/01/06 11:45:30;;;;;;;24.60;3.83;;;;;;;;;;5002018;28;20022;-72
2023/01/06 11:47:59;;;;;;;21.35;3.03;;;;;;;;;;5041359;28;20090;-71
2023/01/06 11:50:24;;;;;;;29.50;4.32;;;;;;;;;;5039845;28;20029;-71
2023/01/06 11:53:03;;;;;;;27.58;3.83;;;;;;;;;;5042008;28;20499;-71
2023/01/06 11:55:29;;;;;;;24.60;2.83;;;;;;;;;;5041540;28;20028;-70
2023/01/06 11:58:10;;;;;;;27.75;4.78;;;;;;;;;;5041705;28;20505;-71
2023/01/06 12:00:36;;;;;;;30.50;4.53;;;;;;;;;;5041813;28;20393;-71
2023/01/06 12:03:14;;;;;;;38.90;4.50;;;;;;;;;;5042124;28;20178;-72
2023/01/06 12:05:39;;;;;;;33.25;4.70;;;;;;;;;;5041673;28;20020;-71
2023/01/06 12:08:13;;;;;;;39.58;4.30;;;;;;;;;;5041746;28;20028;-72
2023/01/06 12:10:39;;;;;;;36.60;4.88;;;;;;;;;;5041473;28;20392;-71
2023/01/06 12:13:05;;;;;;;36.80;4.93;;;;;;;;;;5041902;28;20035;-72
2023/01/06 12:15:31;;;;;;;31.27;4.75;;;;;;;;;;5041261;28;20028;-72
2023/01/06 12:18:03;;;;;;;32.22;3.80;;;;;;;;;;5039153;28;20036;-72
2023/01/06 12:20:31;;;;;;;27.35;3.70;;;;;;;;;;5041095;28;20033;-71
2023/01/06 12:23:00;;;;;;;21.33;3.72;;;;;;;;;;5041941;28;20029;-73
2023/01/06 12:25:28;;;;;;;24.48;3.13;;;;;;;;;;5039782;28;20032;-72
2023/01/06 12:27:56;;;;;;;24.85;4.20;;;;;;;;;;5039694;28;20053;-72
2023/01/06 12:30:36;;;;;;;29.35;3.55;;;;;;;;;;5038615;28;20043;-72
2023/01/06 12:33:04;;;;;;;29.13;4.60;;;;;;;;;;5034250;28;20037;-71
2023/01/06 12:35:31;;;;;;;32.00;4.38;;;;;;;;;;5038515;28;20580;-74
2023/01/06 12:38:06;;;;;;;20.35;3.80;;;;;;;;;;5025383;28;20029;-71
2023/01/06 12:40:36;;;;;;;31.30;3.75;;;;;;;;;;5023491;28;20131;-72
2023/01/06 12:43:12;;;;;;;32.20;4.35;;;;;;;;;;5025024;28;20017;-72
2023/01/06 12:45:41;;;;;;;34.17;4.25;;;;;;;;;;5024179;28;20021;-73
2023/01/06 12:48:25;;;;;;;27.27;3.50;;;;;;;;;;5024475;28;20021;-72
2023/01/06 12:50:52;;;;;;;22.00;3.63;;;;;;;;;;5022636;28;20041;-72
2023/01/06 12:53:18;;;;;;;24.40;3.47;;;;;;;;;;5024075;28;20064;-72
2023/01/06 12:55:48;;;;;;;25.35;3.65;;;;;;;;;;5022695;28;20017;-72
2023/01/06 12:58:17;;;;;;;31.42;4.22;;;;;;;;;;5024335;28;20034;-72
2023/01/06 13:00:47;;;;;;;27.63;3.50;;;;;;;;;;5024121;28;20565;-73
2023/01/06 13:03:33;;;;;;;23.42;3.15;;;;;;;;;;5024522;28;20318;-73
2023/01/06 13:06:07;;;;;;;24.17;3.80;;;;;;;;;;5024590;28;20242;-73
2023/01/06 13:08:51;;;;;;;27.33;3.75;;;;;;;;;;5026468;28;20182;-73
2023/01/06 13:11:25;;;;;;;23.90;3.10;;;;;;;;;;5025795;28;20041;-74
2023/01/06 13:13:57;;;;;;;20.60;3.85;;;;;;;;;;5028112;28;20033;-72
2023/01/06 13:16:22;;;;;;;;;;;;;;;;;;5024720;28;20029;-73
2023/01/06 13:18:56;;;;;;;28.13;3.42;;;;;;;;;;5025208;28;19939;-73
2023/01/06 13:21:22;;;;;;;28.30;3.30;;;;;;;;;;5026607;28;20048;-73
2023/01/06 13:24:00;;;;;;;25.98;3.35;;;;;;;;;;5025967;28;20037;-73
2023/01/06 13:26:31;;;;;;;28.73;3.47;;;;;;;;;;5027263;28;20139;-72
2023/01/06 13:29:12;;;;;;;26.65;4.30;;;;;;;;;;5027108;28;20117;-75
2023/01/06 13:31:50;;;;;;;28.33;4.40;;;;;;;;;;5025216;28;20190;-72
2023/01/06 13:34:22;;;;;;;23.08;2.90;;;;;;;;;;5025552;28;20459;-74
2023/01/06 13:37:06;;;;;;;20.65;2.88;;;;;;;;;;5025785;28;20041;-72
2023/01/06 13:39:33;;;;;;;17.52;3.00;;;;;;;;;;5024338;28;20053;-72
2023/01/06 13:42:00;;;;;;;24.30;3.88;;;;;;;;;;5026047;28;20041;-71
2023/01/06 13:44:30;;;;;;;24.13;3.55;;;;;;;;;;5025583;28;20115;-72
2023/01/06 13:47:01;;;;;;;17.75;2.95;;;;;;;;;;5023198;28;20454;-73
2023/01/06 13:49:27;;;;;;;23.67;4.07;;;;;;;;;;5015544;28;20108;-73
2023/01/06 13:51:56;;;;;;;21.63;3.25;;;;;;;;;;5003872;28;20052;-73
2023/01/06 13:54:47;;;;;;;24.35;3.45;;;;;;;;;;5014945;28;20104;-72
2023/01/06 13:57:19;;;;;;;29.57;4.97;;;;;;;;;;4999665;28;20028;-72
2023/01/06 13:59:51;;;;;;;38.28;4.35;;;;;;;;;;5023956;28;20275;-72
2023/01/06 14:02:16;;;;;;;;;;;;;;;;;;5022219;28;20046;-72
2023/01/06 14:04:45;;;;;;;41.90;5.10;;;;;;;;;;5023659;28;20321;-73
2023/01/06 14:07:11;;;;;;;32.30;4.60;;;;;;;;;;5023548;28;20052;-72
2023/01/06 14:09:45;;;;;;;34.78;5.15;;;;;;;;;;5023069;28;20040;-72
2023/01/06 14:12:20;;;;;;;39.77;5.27;;;;;;;;;;5054080;28;20041;-72
2023/01/06 14:14:53;;;;;;;28.67;5.35;;;;;;;;;;5021228;28;20291;-72
2023/01/06 14:17:28;;;;;;;30.45;4.90;;;;;;;;;;5023054;28;20032;-73
2023/01/06 14:19:54;;;;;;;23.20;4.18;;;;;;;;;;5023366;28;20055;-72
2023/01/06 14:22:21;;;;;;;35.75;5.25;;;;;;;;;;5023292;28;20037;-72
2023/01/06 14:24:51;;;;;;;29.95;4.00;;;;;;;;;;5023411;28;20059;-72
2023/01/06 14:27:36;;;;;;;22.40;4.00;;;;;;;;;;5022109;28;20167;-72
2023/01/06 14:30:19;;;;;;;28.83;4.25;;;;;;;;;;5022765;28;20110;-73
2023/01/06 14:32:44;;;;;;;21.02;4.00;;;;;;;;;;5018134;28;20045;-73
2023/01/06 14:35:11;;;;;;;26.58;3.75;;;;;;;;;;5017162;28;20029;-73
2023/01/06 14:37:40;;;;;;;33.78;4.07;;;;;;;;;;5022863;28;20029;-73
2023/01/06 14:40:08;;;;;;;21.55;3.00;;;;;;;;;;5022658;28;20627;-73
2023/01/06 14:42:37;;;;;;;25.67;3.75;;;;;;;;;;5021552;28;20041;-73